createdAt,value
2019-03-29T00:00:28.535Z,16.48
2019-03-29T00:03:17.881Z,22.65
2019-03-29T00:06:06.921Z,18.70
2019-03-29T00:08:56.287Z,15.70
2019-03-29T00:11:45.369Z,19.73
2019-03-29T00:14:34.724Z,15.90
2019-03-29T00:17:23.948Z,16.37
2019-03-29T00:20:13.575Z,16.77
2019-03-29T00:23:02.958Z,19.62
2019-03-29T00:25:51.994Z,15.20
2019-03-29T00:28:41.484Z,19.10
2019-03-29T00:31:30.543Z,23.30
2019-03-29T00:34:20.224Z,17.42
2019-03-29T00:37:09.424Z,25.23
2019-03-29T00:39:58.626Z,19.32
2019-03-29T00:42:47.484Z,17.52
2019-03-29T00:45:37.098Z,21.00
2019-03-29T00:48:25.541Z,18.98
2019-03-29T00:51:14.944Z,18.57
2019-03-29T00:54:04.071Z,18.87
2019-03-29T00:56:53.056Z,18.67
2019-03-29T00:59:42.371Z,19.73
2019-03-29T01:02:31.482Z,19.67
2019-03-29T01:05:20.993Z,21.02
2019-03-29T01:08:11.776Z,15.23
2019-03-29T01:11:00.635Z,20.30
2019-03-29T01:13:50.858Z,18.67
2019-03-29T01:16:40.469Z,21.00
2019-03-29T01:19:30.102Z,19.57
2019-03-29T01:22:19.637Z,18.02
2019-03-29T01:25:09.328Z,14.63
2019-03-29T01:27:58.422Z,18.55
2019-03-29T01:30:48.262Z,14.75
2019-03-29T01:33:37.650Z,15.88
2019-03-29T01:36:27.941Z,18.00
2019-03-29T01:39:17.008Z,18.65
2019-03-29T01:42:07.096Z,19.37
2019-03-29T01:44:56.266Z,18.50
2019-03-29T01:47:45.328Z,20.72
2019-03-29T01:50:35.012Z,18.25
2019-03-29T01:53:26.844Z,16.90
2019-03-29T01:56:15.582Z,19.23
2019-03-29T01:59:04.761Z,21.20
2019-03-29T02:01:54.952Z,18.17
2019-03-29T02:04:44.024Z,16.48
2019-03-29T02:07:33.282Z,16.97
2019-03-29T02:10:23.108Z,11.57
2019-03-29T02:13:12.364Z,19.40
2019-03-29T02:16:01.814Z,20.17
2019-03-29T02:18:51.496Z,17.50
2019-03-29T02:21:40.725Z,21.02
2019-03-29T02:24:29.927Z,17.92
2019-03-29T02:27:18.569Z,19.75
2019-03-29T02:30:11.341Z,20.68
2019-03-29T02:33:00.424Z,15.55
2019-03-29T02:35:49.466Z,15.70
2019-03-29T02:38:54.153Z,19.92
2019-03-29T02:41:29.643Z,17.40
2019-03-29T02:44:18.480Z,17.85
2019-03-29T02:47:08.075Z,23.50
2019-03-29T02:49:57.228Z,23.65
2019-03-29T02:52:46.212Z,18.80
2019-03-29T02:55:35.319Z,15.58
2019-03-29T02:58:24.649Z,19.50
2019-03-29T03:01:13.173Z,14.60
2019-03-29T03:04:02.981Z,24.20
2019-03-29T03:06:52.108Z,22.77
2019-03-29T03:09:41.223Z,23.60
2019-03-29T03:12:30.367Z,16.05
2019-03-29T03:15:19.746Z,20.40
2019-03-29T03:18:09.080Z,16.27
2019-03-29T03:21:00.138Z,19.50
2019-03-29T03:23:50.229Z,17.73
2019-03-29T03:26:38.903Z,20.40
2019-03-29T03:29:28.220Z,25.80
2019-03-29T03:32:17.632Z,26.95
2019-03-29T03:35:09.816Z,16.77
2019-03-29T03:37:59.022Z,23.67
2019-03-29T03:40:47.690Z,22.80
2019-03-29T03:43:37.059Z,27.50
2019-03-29T03:46:26.155Z,36.33
2019-03-29T03:49:15.685Z,36.93
2019-03-29T03:52:04.889Z,42.48
2019-03-29T03:54:54.130Z,39.67
2019-03-29T03:57:43.921Z,43.33
2019-03-29T04:00:52.008Z,51.00
2019-03-29T04:03:41.614Z,43.23
2019-03-29T04:06:30.942Z,44.65
2019-03-29T04:09:20.173Z,37.33
2019-03-29T04:12:08.676Z,45.78
2019-03-29T04:14:58.897Z,39.60
2019-03-29T04:17:48.057Z,39.30
2019-03-29T04:20:37.339Z,44.65
2019-03-29T04:23:27.001Z,52.95
2019-03-29T04:26:16.275Z,46.18
2019-03-29T04:29:05.743Z,42.90
2019-03-29T04:31:54.803Z,45.17
2019-03-29T04:34:43.341Z,39.65
2019-03-29T04:37:32.319Z,35.80
2019-03-29T04:40:21.385Z,37.00
2019-03-29T04:43:10.663Z,42.70
2019-03-29T04:45:59.534Z,42.33
2019-03-29T04:48:49.377Z,39.45
2019-03-29T04:51:38.443Z,40.17
2019-03-29T04:54:28.023Z,35.75
2019-03-29T04:57:16.888Z,40.98
2019-03-29T05:00:08.117Z,42.35
2019-03-29T05:02:56.621Z,36.85
2019-03-29T05:05:45.937Z,35.00
2019-03-29T05:08:34.523Z,38.23
2019-03-29T05:11:23.551Z,34.67
2019-03-29T05:14:12.730Z,35.48
2019-03-29T05:17:02.094Z,38.35
2019-03-29T05:19:50.797Z,34.58
2019-03-29T05:22:39.908Z,31.10
2019-03-29T05:25:29.376Z,30.02
2019-03-29T05:28:19.174Z,33.33
2019-03-29T05:31:08.699Z,34.45
2019-03-29T05:33:57.906Z,24.72
2019-03-29T05:36:46.962Z,27.35
2019-03-29T05:39:36.261Z,26.65
2019-03-29T05:42:25.130Z,29.98
2019-03-29T05:45:14.777Z,27.17
2019-03-29T05:48:04.557Z,24.85
2019-03-29T05:50:53.930Z,23.85
2019-03-29T05:53:43.408Z,25.20
2019-03-29T05:56:32.662Z,24.63
2019-03-29T05:59:22.249Z,22.45
2019-03-29T06:02:11.726Z,30.70
2019-03-29T06:05:00.585Z,23.15
2019-03-29T06:07:49.393Z,23.05
2019-03-29T06:10:49.022Z,23.12
2019-03-29T06:13:29.422Z,20.40
2019-03-29T06:16:18.283Z,21.10
2019-03-29T06:19:07.656Z,27.00
2019-03-29T06:21:56.938Z,23.32
2019-03-29T06:24:46.459Z,24.52
2019-03-29T06:27:36.175Z,22.22
2019-03-29T06:30:31.906Z,23.05
2019-03-29T06:33:21.178Z,27.73
2019-03-29T06:36:11.125Z,26.75
2019-03-29T06:39:00.642Z,28.67
2019-03-29T06:41:49.651Z,21.12
2019-03-29T06:44:38.572Z,25.30
2019-03-29T06:47:27.502Z,24.65
2019-03-29T06:50:16.581Z,26.00
2019-03-29T06:53:05.681Z,24.15
2019-03-29T06:55:55.218Z,29.48
2019-03-29T06:58:43.846Z,29.87
2019-03-29T07:01:33.251Z,23.02
2019-03-29T07:04:22.724Z,23.90
2019-03-29T07:07:11.455Z,27.93
2019-03-29T07:10:00.755Z,23.07
2019-03-29T07:12:49.928Z,24.23
2019-03-29T07:15:38.980Z,26.00
2019-03-29T07:18:28.631Z,24.90
2019-03-29T07:21:21.788Z,24.60
2019-03-29T07:24:07.601Z,31.70
2019-03-29T07:32:33.696Z,24.35
2019-03-29T07:49:25.701Z,31.20
2019-03-29T07:52:14.609Z,31.20
2019-03-29T07:55:04.705Z,29.77
2019-03-29T07:57:53.964Z,29.25
2019-03-29T08:00:43.605Z,27.65
2019-03-29T08:03:32.574Z,22.87
2019-03-29T08:06:21.627Z,24.55
2019-03-29T08:09:21.594Z,30.40
2019-03-29T08:12:02.115Z,25.32
2019-03-29T08:14:51.864Z,27.77
2019-03-29T08:17:41.099Z,25.97
2019-03-29T08:20:41.993Z,25.45
2019-03-29T08:23:20.838Z,29.67
2019-03-29T08:26:10.618Z,26.35
2019-03-29T08:28:59.983Z,29.82
2019-03-29T08:31:48.946Z,26.07
2019-03-29T08:34:38.065Z,26.30
2019-03-29T08:37:27.794Z,25.90
2019-03-29T08:40:16.723Z,24.67
2019-03-29T08:43:06.645Z,24.27
2019-03-29T08:45:57.596Z,25.90
2019-03-29T08:48:46.506Z,27.42
2019-03-29T08:51:35.160Z,24.40
2019-03-29T08:54:24.854Z,29.85
2019-03-29T08:57:13.478Z,27.93
2019-03-29T09:00:03.068Z,25.70
2019-03-29T09:02:52.289Z,28.25
2019-03-29T09:05:42.728Z,24.90
2019-03-29T09:08:32.008Z,23.22
2019-03-29T09:11:20.875Z,29.48
2019-03-29T09:14:10.386Z,30.65
2019-03-29T09:16:59.608Z,26.15
2019-03-29T09:19:49.082Z,27.05
2019-03-29T09:22:38.350Z,32.75
2019-03-29T09:25:27.621Z,28.92
2019-03-29T09:28:16.554Z,27.60
2019-03-29T09:31:06.223Z,26.60
2019-03-29T09:33:58.285Z,27.80
2019-03-29T09:36:45.541Z,28.38
2019-03-29T09:39:35.103Z,26.45
2019-03-29T09:42:29.521Z,25.97
2019-03-29T09:45:14.862Z,23.47
2019-03-29T09:48:03.717Z,27.05
2019-03-29T09:50:53.313Z,28.40
2019-03-29T09:53:42.752Z,27.20
2019-03-29T09:56:38.807Z,27.48
2019-03-29T09:59:23.399Z,28.05
2019-03-29T10:02:13.146Z,29.07
2019-03-29T10:05:02.060Z,33.18
2019-03-29T10:07:51.682Z,28.47
2019-03-29T10:10:40.962Z,27.87
2019-03-29T10:13:30.184Z,30.40
2019-03-29T10:16:19.417Z,30.37
2019-03-29T10:19:08.767Z,30.00
2019-03-29T10:21:57.721Z,32.03
2019-03-29T10:24:46.777Z,32.83
2019-03-29T10:27:35.857Z,30.92
2019-03-29T10:30:46.608Z,31.77
2019-03-29T10:33:33.967Z,29.25
2019-03-29T10:36:22.928Z,33.25
2019-03-29T10:39:15.405Z,37.65
2019-03-29T10:42:04.410Z,28.35
2019-03-29T10:44:53.997Z,30.48
2019-03-29T10:47:44.251Z,49.23
2019-03-29T10:50:34.598Z,32.78
2019-03-29T10:53:23.643Z,36.25
2019-03-29T10:56:12.712Z,36.40
2019-03-29T10:59:02.069Z,32.98
2019-03-29T11:01:51.560Z,31.77
2019-03-29T11:04:40.522Z,32.98
2019-03-29T11:07:29.767Z,35.00
2019-03-29T11:10:34.826Z,36.17
2019-03-29T11:13:23.855Z,34.83
2019-03-29T11:16:12.549Z,33.15
2019-03-29T11:19:01.531Z,31.10
2019-03-29T11:21:50.675Z,36.53
2019-03-29T11:24:39.329Z,34.80
2019-03-29T11:27:28.912Z,35.75
2019-03-29T11:30:18.008Z,35.38
2019-03-29T11:33:07.764Z,33.10
2019-03-29T11:35:56.277Z,38.55
2019-03-29T11:38:45.677Z,43.68
2019-03-29T11:41:34.775Z,37.67
2019-03-29T11:44:24.318Z,37.50
2019-03-29T11:47:12.857Z,36.50
2019-03-29T11:50:01.643Z,38.67
2019-03-29T11:52:50.989Z,40.90
2019-03-29T11:55:40.304Z,36.63
2019-03-29T11:58:29.170Z,37.70
2019-03-29T12:01:18.398Z,47.20
2019-03-29T12:04:07.953Z,34.88
2019-03-29T12:06:57.381Z,36.08
2019-03-29T12:09:46.618Z,39.83
2019-03-29T12:12:35.722Z,39.23
2019-03-29T12:15:25.156Z,42.13
2019-03-29T12:18:13.841Z,37.70
2019-03-29T12:21:03.084Z,36.33
2019-03-29T12:23:52.486Z,37.73
2019-03-29T12:26:41.822Z,37.78
2019-03-29T12:29:30.946Z,36.55
2019-03-29T12:32:20.574Z,37.38
2019-03-29T12:35:10.232Z,40.90
2019-03-29T12:38:00.032Z,38.05
2019-03-29T12:40:49.081Z,38.70
2019-03-29T12:43:37.747Z,38.02
2019-03-29T12:46:26.602Z,40.55
2019-03-29T12:49:16.390Z,43.02
2019-03-29T12:52:05.841Z,57.55
2019-03-29T12:54:55.138Z,43.75
2019-03-29T12:57:44.914Z,42.83
2019-03-29T13:00:34.258Z,40.55
2019-03-29T13:03:23.360Z,40.23
2019-03-29T13:06:12.512Z,36.00
2019-03-29T13:09:01.378Z,41.68
2019-03-29T13:11:50.752Z,42.70
2019-03-29T13:14:39.913Z,37.42
2019-03-29T13:17:29.010Z,38.58
2019-03-29T13:20:18.561Z,39.90
2019-03-29T13:23:07.650Z,40.92
2019-03-29T13:25:57.093Z,44.63
2019-03-29T13:28:45.967Z,41.83
2019-03-29T13:31:34.824Z,42.48
2019-03-29T13:34:23.772Z,42.75
2019-03-29T13:37:13.250Z,42.45
2019-03-29T13:40:02.934Z,44.27
2019-03-29T13:42:52.207Z,48.85
2019-03-29T13:45:41.646Z,40.40
2019-03-29T13:48:31.098Z,41.10
2019-03-29T13:51:19.999Z,37.38
2019-03-29T13:54:08.874Z,40.05
2019-03-29T13:56:58.136Z,44.83
2019-03-29T13:59:46.688Z,40.30
2019-03-29T14:02:36.064Z,40.73
2019-03-29T14:05:24.941Z,44.48
2019-03-29T14:08:14.190Z,43.02
2019-03-29T14:11:03.350Z,44.90
2019-03-29T14:13:52.829Z,41.13
2019-03-29T14:16:42.156Z,45.78
2019-03-29T14:19:31.592Z,45.25
2019-03-29T14:22:20.636Z,40.08
2019-03-29T14:25:10.319Z,38.45
2019-03-29T14:27:59.383Z,38.45
2019-03-29T14:30:48.638Z,49.18
2019-03-29T14:33:38.133Z,37.35
2019-03-29T14:36:27.882Z,38.73
2019-03-29T14:39:17.694Z,41.70
2019-03-29T14:42:06.646Z,40.08
2019-03-29T14:44:55.508Z,41.60
2019-03-29T14:47:44.574Z,39.55
2019-03-29T14:50:34.153Z,39.35
2019-03-29T14:53:23.072Z,37.03
2019-03-29T14:56:12.796Z,38.25
2019-03-29T14:59:01.831Z,42.75
2019-03-29T15:01:51.621Z,37.40
2019-03-29T15:04:40.435Z,38.88
2019-03-29T15:07:29.761Z,37.93
2019-03-29T15:10:29.350Z,37.85
2019-03-29T15:13:18.561Z,42.58
2019-03-29T15:16:07.528Z,44.00
2019-03-29T15:18:57.200Z,39.15
2019-03-29T15:21:46.129Z,37.98
2019-03-29T15:24:35.328Z,38.90
2019-03-29T15:27:24.835Z,39.92
2019-03-29T15:30:14.698Z,38.67
2019-03-29T15:33:03.343Z,36.33
2019-03-29T15:35:52.212Z,38.70
2019-03-29T15:38:41.364Z,35.85
2019-03-29T15:41:30.489Z,42.05
2019-03-29T15:44:19.800Z,42.85
2019-03-29T15:47:08.727Z,37.30
2019-03-29T15:49:57.926Z,35.45
2019-03-29T15:52:47.270Z,46.68
2019-03-29T15:55:36.883Z,40.58
2019-03-29T15:58:26.079Z,40.08
2019-03-29T16:01:15.414Z,45.00
2019-03-29T16:04:04.707Z,39.10
2019-03-29T16:06:53.857Z,41.00
2019-03-29T16:09:42.906Z,45.03
2019-03-29T16:12:32.186Z,39.98
2019-03-29T16:15:33.942Z,36.65
2019-03-29T16:18:11.890Z,41.65
2019-03-29T16:21:01.343Z,36.45
2019-03-29T16:23:50.688Z,40.70
2019-03-29T16:26:40.381Z,40.33
2019-03-29T16:29:29.618Z,37.00
2019-03-29T16:32:18.510Z,37.35
2019-03-29T16:35:08.733Z,37.55
2019-03-29T16:37:58.486Z,36.80
2019-03-29T16:40:47.593Z,44.65
2019-03-29T16:43:36.979Z,39.08
2019-03-29T16:46:26.289Z,38.02
2019-03-29T16:49:15.077Z,36.63
2019-03-29T16:52:04.339Z,44.88
2019-03-29T16:54:53.585Z,45.50
2019-03-29T16:57:43.064Z,43.38
2019-03-29T17:00:32.493Z,40.60
2019-03-29T17:03:21.714Z,39.88
2019-03-29T17:06:11.179Z,39.25
2019-03-29T17:09:00.036Z,38.20
2019-03-29T17:11:49.510Z,40.55
2019-03-29T17:14:39.067Z,38.15
2019-03-29T17:17:28.353Z,43.55
2019-03-29T17:20:17.585Z,51.13
2019-03-29T17:23:07.196Z,40.58
2019-03-29T17:25:56.572Z,46.25
2019-03-29T17:28:45.940Z,39.83
2019-03-29T17:31:35.518Z,37.78
2019-03-29T17:34:24.430Z,39.15
2019-03-29T17:37:13.347Z,39.83
2019-03-29T17:40:02.596Z,41.58
2019-03-29T17:42:52.001Z,40.73
2019-03-29T17:45:40.490Z,36.15
2019-03-29T17:48:29.710Z,44.63
2019-03-29T17:51:18.889Z,45.73
2019-03-29T17:54:08.180Z,41.20
2019-03-29T17:56:57.576Z,43.48
2019-03-29T17:59:46.688Z,41.28
2019-03-29T18:02:36.056Z,38.15
2019-03-29T18:05:25.019Z,41.20
2019-03-29T18:08:14.193Z,42.43
2019-03-29T18:11:03.435Z,38.58
2019-03-29T18:13:52.521Z,37.45
2019-03-29T18:16:41.482Z,46.00
2019-03-29T18:19:30.035Z,44.75
2019-03-29T18:22:19.403Z,42.27
2019-03-29T18:25:09.082Z,48.25
2019-03-29T18:27:58.357Z,48.00
2019-03-29T18:30:47.491Z,42.53
2019-03-29T18:33:36.489Z,44.30
2019-03-29T18:36:25.606Z,41.58
2019-03-29T18:39:15.233Z,41.55
2019-03-29T18:42:04.704Z,40.52
2019-03-29T18:44:53.837Z,41.05
2019-03-29T18:47:43.236Z,45.40
2019-03-29T18:50:32.283Z,41.15
2019-03-29T18:53:21.978Z,48.85
2019-03-29T18:56:11.440Z,46.30
2019-03-29T18:59:00.313Z,48.63
2019-03-29T19:01:49.472Z,51.83
2019-03-29T19:04:39.003Z,51.28
2019-03-29T19:07:31.576Z,47.85
2019-03-29T19:10:20.614Z,48.75
2019-03-29T19:13:10.149Z,50.03
2019-03-29T19:15:59.665Z,54.55
2019-03-29T19:18:49.192Z,53.38
2019-03-29T19:21:38.175Z,51.15
2019-03-29T19:24:27.319Z,52.80
2019-03-29T19:27:16.904Z,49.45
2019-03-29T19:30:10.196Z,51.83
2019-03-29T19:32:59.852Z,46.65
2019-03-29T19:35:49.126Z,52.90
2019-03-29T19:38:38.502Z,50.00
2019-03-29T19:41:27.457Z,55.38
2019-03-29T19:44:16.718Z,60.80
2019-03-29T19:47:13.340Z,45.60
2019-03-29T19:49:57.271Z,58.87
2019-03-29T19:52:46.266Z,60.45
2019-03-29T19:55:35.335Z,58.13
2019-03-29T19:58:24.350Z,56.20
2019-03-29T20:01:13.179Z,61.42
2019-03-29T20:04:02.098Z,57.08
2019-03-29T20:06:51.381Z,61.40
2019-03-29T20:09:42.089Z,56.90
2019-03-29T20:12:30.731Z,61.13
2019-03-29T20:15:20.112Z,65.97
2019-03-29T20:18:09.686Z,62.80
2019-03-29T20:20:59.136Z,80.87
2019-03-29T20:23:48.338Z,68.35
2019-03-29T20:26:36.845Z,104.75
2019-03-29T20:29:26.354Z,66.37
2019-03-29T20:32:15.520Z,77.70
2019-03-29T20:35:07.043Z,79.00
2019-03-29T20:37:56.102Z,63.40
2019-03-29T20:40:45.680Z,65.52
2019-03-29T20:43:35.571Z,92.20
2019-03-29T20:46:24.621Z,66.50
2019-03-29T20:49:14.204Z,70.70
2019-03-29T20:52:03.107Z,74.75
2019-03-29T20:54:51.825Z,77.72
2019-03-29T20:57:41.159Z,88.62
2019-03-29T21:00:30.496Z,66.80
2019-03-29T21:03:19.842Z,71.10
2019-03-29T21:06:08.885Z,69.30
2019-03-29T21:08:58.168Z,75.25
2019-03-29T21:11:47.087Z,70.35
2019-03-29T21:14:36.405Z,87.35
2019-03-29T21:17:25.408Z,75.67
2019-03-29T21:20:15.560Z,81.82
2019-03-29T21:23:04.416Z,76.62
2019-03-29T21:25:53.693Z,87.17
2019-03-29T21:28:43.261Z,73.80
2019-03-29T21:31:32.562Z,87.92
2019-03-29T21:34:21.911Z,88.40
2019-03-29T21:37:10.320Z,109.55
2019-03-29T21:39:59.628Z,72.45
2019-03-29T21:42:48.990Z,81.63
2019-03-29T21:45:37.857Z,74.92
2019-03-29T21:48:29.201Z,86.80
2019-03-29T21:51:18.363Z,76.15
2019-03-29T21:54:07.610Z,76.22
2019-03-29T21:56:56.800Z,84.25
2019-03-29T21:59:46.130Z,82.37
2019-03-29T22:02:35.147Z,82.57
2019-03-29T22:05:24.379Z,89.85
2019-03-29T22:08:13.747Z,79.58
2019-03-29T22:11:03.022Z,77.53
2019-03-29T22:13:52.191Z,88.58
2019-03-29T22:16:40.780Z,110.42
2019-03-29T22:19:30.318Z,85.00
2019-03-29T22:22:19.354Z,102.62
2019-03-29T22:25:09.988Z,84.20
2019-03-29T22:27:59.306Z,75.87
2019-03-29T22:30:48.828Z,87.55
2019-03-29T22:33:37.990Z,87.30
2019-03-29T22:36:27.686Z,92.25
2019-03-29T22:39:16.427Z,94.97
2019-03-29T22:42:05.885Z,85.05
2019-03-29T22:44:55.183Z,99.45
2019-03-29T22:47:44.218Z,79.42
2019-03-29T22:50:33.409Z,100.38
2019-03-29T22:53:22.578Z,97.20
2019-03-29T22:56:12.154Z,90.05
2019-03-29T22:59:01.112Z,109.07
2019-03-29T23:01:50.953Z,94.25
2019-03-29T23:04:40.081Z,92.97
2019-03-29T23:07:29.412Z,95.30
2019-03-29T23:10:18.603Z,103.45
2019-03-29T23:13:08.063Z,107.27
2019-03-29T23:15:57.560Z,115.40
2019-03-29T23:18:46.259Z,143.30
2019-03-29T23:21:35.581Z,137.47
2019-03-29T23:24:24.960Z,107.50
2019-03-29T23:27:14.396Z,96.25
2019-03-29T23:30:04.125Z,101.07
2019-03-29T23:32:53.911Z,128.12
2019-03-29T23:35:42.769Z,94.30
2019-03-29T23:38:32.016Z,101.03
2019-03-29T23:41:21.111Z,130.60
2019-03-29T23:44:10.389Z,108.83
2019-03-29T23:46:59.493Z,127.35
2019-03-29T23:49:49.301Z,100.92
2019-03-29T23:52:38.567Z,111.65
2019-03-29T23:55:27.407Z,147.00
2019-03-29T23:58:16.971Z,146.15
